Time;durP1;ratioP1;P1;durP2;ratioP2;P2;SDS_P1;SDS_P2;PMS_P1;PMS_P2;Temp;Humidity;BMP_temperature;BMP_pressure;BME280_temperature;BME280_humidity;BME280_pressure;Samples;Min_cycle;Max_cycle;Signal;HPM_P1;HPM_P2
2022/05/31 00:04:58;;;;;;;8.50;7.20;;;;;;;9.94;78.95;98700.45;219659;1273;22555;-66
2022/05/31 00:10:01;;;;;;;7.60;6.90;;;;;;;9.89;79.18;98692.48;217823;1274;3179687;-66
2022/05/31 00:15:05;;;;;;;8.10;7.20;;;;;;;9.87;79.66;98679.25;219918;1273;22534;-67
2022/05/31 00:20:13;;;;;;;10.30;7.20;;;;;;;9.86;79.73;98661.23;219630;1274;22947;-65
2022/05/31 00:25:16;;;;;;;7.90;6.90;;;;;;;9.85;79.90;98646.13;219581;1273;25307;-66
2022/05/31 00:30:19;;;;;;;9.00;6.80;;;;;;;9.86;80.30;98647.73;219359;1273;22999;-66
2022/05/31 00:35:36;;;;;;;7.70;6.90;;;;;;;9.85;80.22;98640.74;219595;1273;24293;-66
2022/05/31 00:41:23;;;;;;;9.90;7.20;;;;;;;9.81;80.55;98629.38;219850;1273;22705;-66
2022/05/31 00:46:58;;;;;;;9.20;8.20;;;;;;;9.77;80.56;98637.98;220054;1273;22561;-65
2022/05/31 00:52:38;;;;;;;10.30;7.80;;;;;;;9.68;80.46;98654.05;219360;1275;24205;-66
2022/05/31 00:58:12;;;;;;;9.70;8.00;;;;;;;9.53;80.38;98658.60;219508;1274;22700;-66
2022/05/31 01:03:25;;;;;;;8.70;7.90;;;;;;;9.38;80.55;98656.71;219781;1273;22535;-67
2022/05/31 01:08:45;;;;;;;8.90;8.10;;;;;;;9.24;80.72;98655.35;220163;1273;22554;-66
2022/05/31 01:14:17;;;;;;;10.60;9.50;;;;;;;9.09;80.86;98659.39;219651;1274;25376;-66
2022/05/31 01:19:55;;;;;;;10.90;8.60;;;;;;;8.95;81.07;98667.27;219378;1273;22694;-67
2022/05/31 01:25:55;;;;;;;9.50;8.50;;;;;;;8.83;81.21;98670.40;219562;1274;22531;-67
2022/05/31 01:31:15;;;;;;;12.10;8.30;;;;;;;8.71;81.53;98667.02;218335;1282;26138;-65
2022/05/31 01:36:27;;;;;;;9.20;8.30;;;;;;;8.62;81.78;98662.16;219685;1273;22663;-66
2022/05/31 01:41:39;;;;;;;10.30;8.80;;;;;;;8.55;81.93;98660.67;219667;1273;22958;-67
2022/05/31 01:46:51;;;;;;;10.30;9.00;;;;;;;8.48;82.33;98664.13;220196;1274;22584;-66
2022/05/31 01:52:18;;;;;;;9.70;8.80;;;;;;;8.39;82.40;98676.48;219792;1273;24859;-66
2022/05/31 01:57:24;;;;;;;10.20;9.20;;;;;;;8.30;82.34;98680.11;220233;1274;22702;-66
2022/05/31 02:02:27;;;;;;;10.00;9.00;;;;;;;8.22;82.48;98684.64;219540;1273;22531;-67
2022/05/31 02:07:33;;;;;;;12.60;9.50;;;;;;;8.15;83.00;98680.67;219780;1273;22551;-66
2022/05/31 02:12:40;;;;;;;10.00;9.00;;;;;;;8.08;82.97;98675.58;219936;1274;26462;-66
2022/05/31 02:18:06;;;;;;;10.90;9.70;;;;;;;8.00;83.06;98673.16;219380;1274;25506;-68
2022/05/31 02:23:38;;;;;;;10.60;9.50;;;;;;;7.94;83.05;98673.56;219471;1273;25352;-66
2022/05/31 02:28:49;;;;;;;11.70;10.50;;;;;;;7.90;83.16;98677.15;219309;1273;24852;-67
2022/05/31 02:33:51;;;;;;;12.40;9.20;;;;;;;7.85;83.32;98674.17;219668;1273;25083;-66
2022/05/31 02:38:54;;;;;;;11.40;9.90;;;;;;;7.79;83.17;98673.45;220188;1274;22716;-67
2022/05/31 02:44:03;;;;;;;11.90;10.50;;;;;;;7.74;83.59;98682.38;219799;1274;22744;-66
2022/05/31 02:49:06;;;;;;;13.50;11.50;;;;;;;7.69;83.89;98682.94;219628;1273;22631;-68
2022/05/31 02:54:30;;;;;;;12.50;10.50;;;;;;;7.69;84.16;98682.18;219818;1273;22624;-66
2022/05/31 02:59:51;;;;;;;12.40;10.90;;;;;;;7.71;84.31;98684.05;219225;1274;22546;-66
2022/05/31 03:05:39;;;;;;;10.90;9.80;;;;;;;7.76;84.60;98693.14;219582;1274;24201;-67
2022/05/31 03:11:04;;;;;;;11.00;9.90;;;;;;;7.79;84.77;98692.45;220099;1273;22546;-67
2022/05/31 03:16:27;;;;;;;11.20;10.00;;;;;;;7.83;84.95;98696.85;219290;1274;23112;-66
2022/05/31 03:21:55;;;;;;;11.90;10.60;;;;;;;7.92;84.91;98702.36;219544;1274;24282;-66
2022/05/31 03:27:05;;;;;;;14.90;12.50;;;;;;;8.19;85.35;98704.88;219404;1273;22553;-67
2022/05/31 03:32:18;;;;;;;17.40;15.50;;;;;;;8.63;85.84;98711.66;219867;1274;25435;-68
2022/05/31 03:37:20;;;;;;;24.60;21.30;;;;;;;9.07;85.18;98711.77;219685;1274;22563;-66
2022/05/31 03:42:26;;;;;;;29.10;26.10;;;;;;;9.49;84.73;98710.99;220026;1273;25323;-66
2022/05/31 03:47:39;;;;;;;33.20;28.60;;;;;;;9.94;84.27;98704.52;220048;1273;22557;-66
2022/05/31 03:53:52;;;;;;;35.30;31.10;;;;;;;10.57;84.08;98703.25;220023;1274;25370;-67
2022/05/31 03:59:07;;;;;;;39.00;33.40;;;;;;;11.28;83.40;98709.63;219544;1274;22552;-65
2022/05/31 04:04:11;;;;;;;46.30;36.40;;;;;;;11.71;82.33;98712.02;219474;1277;22625;-66
2022/05/31 04:09:54;;;;;;;59.90;42.20;;;;;;;11.94;81.87;98718.80;219439;1275;22554;-67
2022/05/31 04:14:57;;;;;;;64.80;43.70;;;;;;;12.01;81.18;98719.87;219684;1274;25345;-65
2022/05/31 04:19:59;;;;;;;56.50;38.90;;;;;;;11.83;80.20;98719.64;219572;1274;24558;-65
2022/05/31 04:25:02;;;;;;;47.10;35.00;;;;;;;11.48;79.90;98719.25;219512;1275;22552;-66
2022/05/31 04:30:44;;;;;;;34.90;28.70;;;;;;;11.23;80.03;98726.32;219188;1273;22958;-65
2022/05/31 04:36:23;;;;;;;34.30;25.50;;;;;;;10.91;80.48;98723.95;219791;1277;22801;-67
2022/05/31 04:41:29;;;;;;;29.10;24.90;;;;;;;10.84;81.28;98722.60;219324;1273;24157;-66
2022/05/31 04:46:39;;;;;;;29.20;24.60;;;;;;;10.88;81.70;98721.48;219786;1273;25315;-66
2022/05/31 04:52:00;;;;;;;32.60;24.70;;;;;;;10.96;81.76;98721.17;219799;1274;23809;-66
2022/05/31 04:57:12;;;;;;;40.20;30.30;;;;;;;11.07;81.73;98718.71;219909;1274;25925;-66
2022/05/31 05:02:22;;;;;;;41.70;31.90;;;;;;;11.18;81.99;98724.91;219514;1277;22542;-66
2022/05/31 05:08:09;;;;;;;34.60;28.50;;;;;;;11.29;81.90;98726.78;219786;1273;24116;-66
2022/05/31 05:13:23;;;;;;;33.70;26.60;;;;;;;11.41;81.94;98721.73;219991;1273;26826;-66
2022/05/31 05:18:50;;;;;;;27.30;22.80;;;;;;;11.56;81.85;98727.86;219408;1273;22592;-66
2022/05/31 05:23:52;;;;;;;32.10;22.70;;;;;;;11.68;81.80;98721.80;219711;1273;22535;-66
2022/05/31 05:34:35;;;;;;;23.30;20.60;;;;;;;12.04;81.36;98714.49;219543;1274;22557;-66
2022/05/31 05:39:41;;;;;;;13.60;12.30;;;;;;;12.22;81.57;98716.01;219385;1274;24225;-65
2022/05/31 05:45:07;;;;;;;12.20;10.90;;;;;;;12.39;80.92;98709.57;219302;1274;22560;-66
2022/05/31 05:50:13;;;;;;;13.00;10.50;;;;;;;12.55;80.18;98711.87;219769;1274;22551;-65
2022/05/31 05:55:31;;;;;;;15.20;10.90;;;;;;;12.74;79.46;98709.15;219282;1274;25454;-66
2022/05/31 06:01:17;;;;;;;;;;;;;;;;;;;;;
2022/05/31 06:07:21;;;;;;;;;;;;;;;13.21;78.45;98728.52;218883;1276;24004;-66
2022/05/31 06:18:51;;;;;;;15.00;12.50;;;;;;;13.49;77.13;98731.89;219018;1274;22693;-66
2022/05/31 06:24:04;;;;;;;13.90;12.50;;;;;;;13.65;76.88;98735.67;219223;1274;22807;-67
2022/05/31 06:29:10;;;;;;;16.70;14.90;;;;;;;13.88;76.96;98737.45;219773;1274;25363;-66
2022/05/31 06:34:12;;;;;;;14.00;12.20;;;;;;;14.12;76.28;98737.69;219434;1274;25303;-68
2022/05/31 06:39:58;;;;;;;12.80;11.50;;;;;;;14.29;75.28;98735.71;219185;1274;22560;-67
2022/05/31 06:45:54;;;;;;;14.00;12.50;;;;;;;14.51;74.95;98736.33;219451;1274;22564;-66
2022/05/31 06:56:48;;;;;;;11.00;10.00;;;;;;;14.74;74.66;98737.10;219754;1274;23168;-67
2022/05/31 07:03:32;;;;;;;9.90;9.00;;;;;;;15.29;73.96;98737.32;218884;1275;22550;-67
2022/05/31 07:08:38;;;;;;;9.30;8.30;;;;;;;15.57;73.42;98734.55;219713;1274;25331;-66
2022/05/31 07:14:30;;;;;;;9.20;8.40;;;;;;;15.92;72.84;98733.21;219395;1274;25405;-67
2022/05/31 07:20:29;;;;;;;10.10;8.40;;;;;;;16.12;71.43;98732.08;219447;1277;25259;-66
2022/05/31 07:25:53;;;;;;;7.90;7.10;;;;;;;16.23;70.88;98733.73;219746;1274;22576;-67
2022/05/31 07:31:00;;;;;;;6.80;6.20;;;;;;;16.35;69.97;98729.40;218623;1275;22753;-66
2022/05/31 07:36:10;;;;;;;8.40;6.60;;;;;;;16.60;69.86;98728.09;222893;1275;22624;-66
2022/05/31 07:41:38;;;;;;;8.50;6.20;;;;;;;16.92;68.99;98726.75;218946;1275;22862;-65
2022/05/31 07:46:47;;;;;;;7.20;6.30;;;;;;;17.18;68.34;98725.88;218835;1275;22941;-66
2022/05/31 07:51:50;;;;;;;6.60;5.80;;;;;;;17.37;67.61;98725.98;219120;1274;22684;-66
2022/05/31 08:03:02;;;;;;;6.20;5.70;;;;;;;17.79;66.87;98724.34;218823;1274;22554;-66
2022/05/31 08:08:43;;;;;;;6.40;5.30;;;;;;;17.93;65.21;98726.62;218588;1276;22563;-66
2022/05/31 08:13:46;;;;;;;7.90;5.30;;;;;;;17.96;64.94;98727.86;219490;1274;23404;-65
2022/05/31 08:18:49;;;;;;;5.50;4.90;;;;;;;18.11;64.52;98722.73;218910;1274;24346;-69
2022/05/31 08:23:59;;;;;;;6.20;5.30;;;;;;;18.21;64.10;98721.98;218977;1275;24228;-66
2022/05/31 08:29:33;;;;;;;7.10;6.40;;;;;;;18.35;64.15;98724.20;220679;1272;24289;-66
2022/05/31 08:35:00;;;;;;;7.20;5.40;;;;;;;18.61;63.95;98720.30;219068;1274;23795;-66
2022/05/31 08:40:13;;;;;;;7.50;5.80;;;;;;;18.87;63.15;98721.05;219048;1274;23964;-66
2022/05/31 08:45:25;;;;;;;6.30;5.70;;;;;;;19.00;62.27;98719.48;219644;1277;22627;-66
2022/05/31 09:02:21;;;;;;;7.10;5.90;;;;;;;19.18;61.61;98713.35;219304;1274;25246;-66
2022/05/31 09:07:55;;;;;;;6.40;5.70;;;;;;;19.18;60.36;98715.46;219146;1275;22879;-66
2022/05/31 09:14:07;;;;;;;11.00;5.10;;;;;;;19.25;59.29;98710.44;220845;1275;22611;-65
2022/05/31 09:20:05;;;;;;;6.40;5.30;;;;;;;19.25;57.75;98708.73;219019;1274;26101;-66
2022/05/31 09:26:17;;;;;;;7.60;4.90;;;;;;;19.61;58.35;98703.21;218984;1275;23227;-67
2022/05/31 09:32:17;;;;;;;4.70;3.70;;;;;;;20.07;56.40;98695.09;219130;1277;25318;-66
2022/05/31 09:37:58;;;;;;;12.40;4.80;;;;;;;20.27;54.24;98697.25;219172;1274;24416;-67
2022/05/31 09:43:12;;;;;;;7.60;4.60;;;;;;;20.50;53.10;98692.54;218929;1275;25389;-66
2022/05/31 09:48:37;;;;;;;5.80;3.90;;;;;;;20.56;52.37;98685.80;218824;1274;25460;-66
2022/05/31 10:00:38;;;;;;;3.10;2.80;;;;;;;21.24;51.77;98670.94;218176;1275;22573;-69
2022/05/31 10:05:48;;;;;;;2.50;2.30;;;;;;;21.60;49.89;98672.28;219440;1274;22554;-65
2022/05/31 10:10:53;;;;;;;;;;;;;;;21.72;48.26;98669.99;219956;1274;28145;-66
2022/05/31 10:15:55;;;;;;;2.10;1.90;;;;;;;21.75;47.18;98665.36;218854;1274;23308;-65
2022/05/31 10:21:11;;;;;;;2.40;2.20;;;;;;;21.76;46.11;98660.23;221130;1274;25427;-66
2022/05/31 10:26:32;;;;;;;3.50;2.50;;;;;;;21.80;45.15;98660.84;218908;1274;22556;-66
2022/05/31 10:32:54;;;;;;;2.50;2.00;;;;;;;21.96;44.93;98659.28;218842;1275;23306;-67
2022/05/31 10:38:10;;;;;;;4.40;2.60;;;;;;;22.06;44.11;98659.27;218968;1274;22896;-65
2022/05/31 10:43:51;;;;;;;4.00;2.90;;;;;;;22.00;43.76;98654.66;219350;1275;22580;-65
2022/05/31 10:49:12;;;;;;;2.80;2.50;;;;;;;22.01;43.17;98649.07;219286;1274;22585;-66
2022/05/31 10:54:42;;;;;;;3.80;2.50;;;;;;;21.95;42.02;98634.64;218911;1275;24147;-66
2022/05/31 10:59:51;;;;;;;2.80;2.10;;;;;;;22.06;42.97;98649.52;218766;1274;22561;-66
2022/05/31 11:05:00;;;;;;;3.00;2.60;;;;;;;22.25;43.09;98645.96;219322;1275;22765;-66
2022/05/31 11:16:36;;;;;;;4.60;2.90;;;;;;;22.44;42.00;98630.08;219651;1274;25324;-66
2022/05/31 11:22:31;;;;;;;5.90;3.10;;;;;;;22.47;41.73;98615.71;218432;1277;22561;-65
2022/05/31 11:28:17;;;;;;;;;;;;;;;;;;;;;
2022/05/31 11:33:58;;;;;;;2.30;2.10;;;;;;;22.71;41.72;98611.99;219311;1274;24262;-67
2022/05/31 11:39:19;;;;;;;2.40;2.10;;;;;;;22.97;41.42;98606.09;219200;1274;23369;-65
2022/05/31 11:45:12;;;;;;;;;;;;;;;;;;;;;
2022/05/31 11:51:02;;;;;;;2.10;1.70;;;;;;;22.85;39.96;98594.89;219322;1274;22556;-66
2022/05/31 11:56:37;;;;;;;2.90;1.80;;;;;;;22.80;40.12;98586.27;219108;1274;22694;-67
2022/05/31 12:02:12;;;;;;;2.80;1.80;;;;;;;22.77;39.95;98580.47;219557;1274;25309;-66
2022/05/31 12:07:33;;;;;;;2.40;2.20;;;;;;;23.05;40.63;98582.22;219418;1275;22639;-66
2022/05/31 12:12:59;;;;;;;;;;;;;;;;;;;;;
2022/05/31 12:18:08;;;;;;;2.10;1.90;;;;;;;23.28;39.03;98563.77;219239;1277;22633;-67
2022/05/31 12:24:01;;;;;;;2.10;1.90;;;;;;;23.28;38.62;98558.07;219336;1274;26120;-67
2022/05/31 12:29:06;;;;;;;2.70;2.00;;;;;;;23.31;38.75;98546.46;219377;1274;22710;-67
2022/05/31 12:34:21;;;;;;;2.40;2.20;;;;;;;23.11;38.65;98539.89;218764;1274;26560;-67
2022/05/31 12:39:41;;;;;;;3.90;2.70;;;;;;;23.06;39.06;98537.34;219195;1273;24762;-67
2022/05/31 12:45:24;;;;;;;2.40;1.80;;;;;;;23.32;38.96;98540.77;219276;1273;23528;-67
2022/05/31 12:50:54;;;;;;;3.00;2.30;;;;;;;23.75;38.99;98539.55;218846;1274;22642;-66
2022/05/31 12:56:01;;;;;;;2.40;2.20;;;;;;;24.04;38.41;98534.55;218942;1274;25397;-66
2022/05/31 13:01:13;;;;;;;2.40;2.20;;;;;;;24.22;38.97;98531.49;219144;1274;22841;-66
2022/05/31 13:06:36;;;;;;;2.50;2.30;;;;;;;24.54;39.09;98526.75;219368;1274;22896;-68
2022/05/31 13:23:06;;;;;;;3.10;2.70;;;;;;;24.18;37.60;98508.19;218871;1274;24352;-68
2022/05/31 13:28:27;;;;;;;2.30;2.10;;;;;;;23.95;38.03;98501.86;218869;1274;24326;-67
2022/05/31 13:33:32;;;;;;;2.30;2.10;;;;;;;23.88;37.91;98494.86;218837;1274;22537;-68
2022/05/31 13:38:40;;;;;;;3.10;2.50;;;;;;;23.83;37.61;98488.71;218982;1274;22977;-69
2022/05/31 13:43:55;;;;;;;4.30;2.20;;;;;;;23.87;38.38;98495.39;219186;1274;25288;-71
2022/05/31 13:49:33;;;;;;;3.20;2.60;;;;;;;23.84;38.73;98494.27;218931;1274;22697;-64
2022/05/31 13:54:45;;;;;;;2.40;2.20;;;;;;;24.05;38.71;98476.25;218670;1276;22718;-66
2022/05/31 13:59:50;;;;;;;2.50;2.30;;;;;;;24.10;38.19;98475.73;218908;1274;24063;-66
2022/05/31 14:05:03;;;;;;;2.40;2.20;;;;;;;24.11;38.52;98478.06;219003;1276;26723;-67
2022/05/31 14:10:25;;;;;;;3.00;2.70;;;;;;;24.07;39.15;98475.23;219695;1273;25378;-67
2022/05/31 14:16:47;;;;;;;6.80;6.20;;;;;;;24.21;38.51;98473.88;220035;1274;25137;-66
2022/05/31 14:22:01;;;;;;;2.90;2.30;;;;;;;24.22;38.18;98468.25;219911;1273;25376;-69
2022/05/31 14:27:15;;;;;;;2.80;2.40;;;;;;;24.25;38.40;98461.45;219765;1274;22534;-66
2022/05/31 14:32:39;;;;;;;;;;;;;;;;;;;;;
2022/05/31 14:37:56;;;;;;;2.60;2.40;;;;;;;24.09;38.71;98465.32;219437;1274;22599;-66
2022/05/31 14:43:15;;;;;;;3.40;2.70;;;;;;;23.88;38.98;98456.96;219924;1274;22577;-67
2022/05/31 14:48:38;;;;;;;3.50;3.20;;;;;;;23.59;40.42;98448.45;219701;1273;22701;-67
2022/05/31 14:53:43;;;;;;;3.10;2.80;;;;;;;23.48;40.56;98450.21;219617;1274;22567;-67
2022/05/31 14:58:54;;;;;;;3.40;2.50;;;;;;;23.42;40.32;98442.29;219775;1274;26867;-67
2022/05/31 15:04:00;;;;;;;2.90;2.60;;;;;;;23.24;40.77;98437.73;219521;1273;22541;-68
2022/05/31 15:09:08;;;;;;;2.40;2.30;;;;;;;23.01;40.66;98434.60;219788;1274;25217;-68
2022/05/31 15:19:40;;;;;;;3.10;2.40;;;;;;;22.92;41.13;98423.46;219645;1274;22730;-68
2022/05/31 15:24:47;;;;;;;2.80;2.60;;;;;;;22.97;40.76;98415.92;220024;1274;22551;-68
2022/05/31 15:29:51;;;;;;;2.70;2.20;;;;;;;22.87;41.08;98413.75;219809;1273;24315;-70
2022/05/31 15:34:57;;;;;;;3.00;2.60;;;;;;;22.79;40.99;98410.49;219911;1274;22722;-68
2022/05/31 15:40:03;;;;;;;2.90;2.40;;;;;;;22.77;40.95;98405.34;219692;1273;24259;-67
2022/05/31 15:45:08;;;;;;;2.50;2.30;;;;;;;22.66;41.28;98395.81;220078;1273;25443;-68
2022/05/31 15:50:25;;;;;;;2.50;2.30;;;;;;;22.75;41.55;98401.24;219573;1273;26380;-67
2022/05/31 15:55:31;;;;;;;3.40;2.50;;;;;;;22.82;41.42;98399.27;219919;1273;22577;-67
2022/05/31 16:00:33;;;;;;;4.20;2.80;;;;;;;22.77;42.25;98400.64;219861;1273;24283;-66
2022/05/31 16:05:50;;;;;;;5.50;2.80;;;;;;;22.76;43.15;98397.67;219636;1274;24101;-66
2022/05/31 16:11:16;;;;;;;3.50;2.90;;;;;;;22.94;42.81;98403.34;219659;1273;23846;-67
2022/05/31 16:16:19;;;;;;;3.00;2.80;;;;;;;23.15;42.19;98400.36;219449;1274;22663;-68
2022/05/31 16:21:21;;;;;;;2.70;2.50;;;;;;;23.32;41.42;98398.04;219933;1274;22645;-68
2022/05/31 16:26:34;;;;;;;3.00;2.70;;;;;;;23.29;41.39;98391.46;219474;1273;24695;-67
2022/05/31 16:32:05;;;;;;;;;;;;;;;;;;;;;
2022/05/31 16:42:38;;;;;;;3.90;3.60;;;;;;;22.51;42.82;98396.46;220027;1273;24298;-68
2022/05/31 16:47:43;;;;;;;3.90;3.60;;;;;;;22.49;43.22;98395.67;219810;1273;23995;-67
2022/05/31 16:52:46;;;;;;;4.20;2.40;;;;;;;22.63;42.07;98394.70;219693;1274;24227;-67
2022/05/31 16:57:49;;;;;;;3.30;2.50;;;;;;;22.76;41.46;98390.81;219791;1274;24212;-67
2022/05/31 17:02:51;;;;;;;11.00;2.80;;;;;;;22.85;41.56;98391.89;219866;1273;22560;-67
2022/05/31 17:18:41;;;;;;;2.90;2.50;;;;;;;23.10;41.59;98390.34;219848;1273;24235;-67
2022/05/31 17:23:46;;;;;;;2.60;2.40;;;;;;;23.24;41.71;98390.97;219252;1274;22560;-67
2022/05/31 17:28:54;;;;;;;2.20;2.10;;;;;;;23.12;42.12;98386.06;219658;1273;22535;-68
2022/05/31 17:33:57;;;;;;;4.00;2.40;;;;;;;22.96;42.38;98383.53;219717;1274;22694;-67
2022/05/31 17:39:08;;;;;;;3.80;2.20;;;;;;;22.69;42.49;98387.95;219631;1274;24739;-68
2022/05/31 17:44:15;;;;;;;2.70;2.40;;;;;;;22.41;42.70;98389.27;219681;1274;22571;-67
2022/05/31 17:49:17;;;;;;;3.90;2.70;;;;;;;22.13;43.40;98388.01;219923;1274;22538;-67
2022/05/31 17:54:31;;;;;;;3.20;2.30;;;;;;;21.88;44.07;98387.45;219734;1273;23371;-67
2022/05/31 18:00:23;;;;;;;3.20;2.60;;;;;;;21.56;44.56;98391.04;219639;1274;24029;-68
2022/05/31 18:06:45;;;;;;;;;;;;;;;;;;;;;
2022/05/31 18:12:02;;;;;;;2.90;2.10;;;;;;;20.85;45.92;98388.54;219551;1274;22567;-68
2022/05/31 18:17:05;;;;;;;3.40;2.50;;;;;;;20.57;46.22;98382.72;219942;1273;24328;-67
2022/05/31 18:22:13;;;;;;;3.60;2.00;;;;;;;20.29;46.51;98376.11;219631;1273;22534;-68
2022/05/31 18:27:16;;;;;;;27.90;23.30;;;;;;;19.99;47.13;98373.48;219596;1273;22552;-67
2022/05/31 18:32:26;;;;;;;6.10;5.50;;;;;;;19.68;48.19;98373.36;220080;1274;22568;-69
2022/05/31 18:42:52;;;;;;;5.00;3.80;;;;;;;19.07;50.32;98370.34;219272;1274;25316;-67
2022/05/31 18:48:01;;;;;;;2.80;2.50;;;;;;;18.80;50.92;98372.98;219771;1273;25752;-67
2022/05/31 18:53:07;;;;;;;3.40;2.40;;;;;;;18.53;50.95;98375.13;219987;1274;24250;-67
2022/05/31 18:58:32;;;;;;;4.50;3.10;;;;;;;18.27;51.08;98375.12;219498;1273;22730;-67
2022/05/31 19:03:34;;;;;;;3.30;2.90;;;;;;;18.02;51.42;98380.77;219851;1273;22721;-67
2022/05/31 19:08:37;;;;;;;30.70;25.20;;;;;;;17.83;52.33;98389.29;219808;1273;25539;-69
2022/05/31 19:13:44;;;;;;;9.80;8.60;;;;;;;17.67;53.06;98398.13;219930;1273;24620;-67
2022/05/31 19:18:54;;;;;;;4.80;4.10;;;;;;;17.55;53.75;98397.51;219736;1273;22551;-68
2022/05/31 19:23:59;;;;;;;6.00;4.00;;;;;;;17.46;54.51;98400.95;219858;1274;24208;-67
2022/05/31 19:29:31;;;;;;;;;;;;;;;;;;;;;
2022/05/31 19:35:09;;;;;;;15.90;13.50;;;;;;;17.32;55.41;98401.11;220001;1274;22572;-68
2022/05/31 19:40:18;;;;;;;7.40;6.20;;;;;;;17.20;55.92;98402.46;219895;1273;24228;-67
2022/05/31 19:45:24;;;;;;;5.60;4.30;;;;;;;17.05;56.01;98399.76;220113;1273;22604;-67
2022/05/31 19:50:33;;;;;;;8.80;4.80;;;;;;;16.88;56.29;98399.33;219944;1273;22549;-68
2022/05/31 19:55:43;;;;;;;5.90;4.20;;;;;;;16.71;56.70;98397.00;220053;1273;22544;-67
2022/05/31 20:00:48;;;;;;;5.70;4.30;;;;;;;16.54;57.14;98398.08;219632;1274;22733;-67
2022/05/31 20:06:05;;;;;;;;;;;;;;;;;;;;;
2022/05/31 20:11:08;;;;;;;7.20;5.10;;;;;;;16.21;58.67;98410.36;220007;1273;22713;-68
2022/05/31 20:16:13;;;;;;;7.80;5.10;;;;;;;16.04;59.41;98403.77;219854;1274;22705;-67
2022/05/31 20:21:21;;;;;;;7.50;5.80;;;;;;;15.87;59.74;98404.86;219399;1274;22601;-71
2022/05/31 20:26:25;;;;;;;7.90;6.10;;;;;;;15.69;60.32;98392.27;219641;1273;22645;-66
2022/05/31 20:31:31;;;;;;;9.80;5.10;;;;;;;15.52;60.62;98384.27;219741;1273;24286;-67
2022/05/31 20:36:47;;;;;;;6.70;5.30;;;;;;;15.36;60.65;98379.98;219607;1273;25376;-67
2022/05/31 20:41:56;;;;;;;6.60;5.80;;;;;;;15.22;60.97;98373.39;219971;1274;25256;-66
2022/05/31 20:46:58;;;;;;;7.40;6.40;;;;;;;15.15;61.53;98372.86;219804;1273;26372;-68
2022/05/31 20:52:01;;;;;;;6.90;5.40;;;;;;;15.07;61.90;98350.77;219511;1276;22705;-68
2022/05/31 20:57:04;;;;;;;6.70;5.40;;;;;;;15.01;61.65;98352.23;219972;1274;22562;-67
2022/05/31 21:02:08;;;;;;;10.10;7.10;;;;;;;14.96;61.65;98344.50;219888;1273;22553;-66
2022/05/31 21:07:24;;;;;;;12.40;8.90;;;;;;;14.90;62.04;98337.36;219644;1273;22564;-67
2022/05/31 21:12:30;;;;;;;12.40;8.50;;;;;;;14.84;62.55;98335.28;219667;1273;24225;-66
2022/05/31 21:17:53;;;;;;;11.90;8.60;;;;;;;14.73;63.07;98330.36;220104;1273;25259;-66
2022/05/31 21:22:55;;;;;;;15.60;9.60;;;;;;;14.61;63.64;98327.45;219801;1274;25247;-67
2022/05/31 21:28:01;;;;;;;11.90;9.20;;;;;;;14.50;64.43;98325.27;219451;1275;23808;-67
2022/05/31 21:33:04;;;;;;;11.90;9.80;;;;;;;14.39;65.09;98311.96;219963;1274;24932;-67
2022/05/31 21:38:13;;;;;;;12.50;10.70;;;;;;;14.30;65.65;98317.90;219699;1273;22554;-68
2022/05/31 21:43:19;;;;;;;15.20;10.90;;;;;;;14.21;66.04;98337.34;219913;1273;22721;-68
2022/05/31 21:48:22;;;;;;;13.30;10.90;;;;;;;14.11;66.51;98336.55;219273;1275;22557;-67
2022/05/31 21:53:35;;;;;;;13.50;10.60;;;;;;;14.04;66.94;98344.88;219421;1275;22531;-67
2022/05/31 21:58:38;;;;;;;14.50;11.40;;;;;;;14.00;67.50;98353.89;219692;1274;22605;-67
2022/05/31 22:03:42;;;;;;;16.90;13.90;;;;;;;13.99;67.83;98363.29;219501;1273;22892;-69
2022/05/31 22:08:45;;;;;;;17.50;12.50;;;;;;;13.99;68.25;98360.16;219504;1273;25305;-68
2022/05/31 22:13:51;;;;;;;16.50;12.20;;;;;;;14.01;68.50;98349.30;219388;1275;22583;-67
2022/05/31 22:18:55;;;;;;;15.80;12.70;;;;;;;14.01;68.69;98335.69;219450;1275;22550;-66
2022/05/31 22:25:12;;;;;;;15.70;12.00;;;;;;;14.02;68.81;98339.34;219630;1273;26363;-67
2022/05/31 22:29:46;;;;;;;17.30;12.20;;;;;;;14.04;69.04;98345.13;219741;1273;25952;-67
2022/05/31 22:34:49;;;;;;;17.70;12.40;;;;;;;14.06;69.07;98352.89;219499;1273;22595;-67
2022/05/31 22:39:58;;;;;;;18.20;12.40;;;;;;;14.05;69.04;98356.20;219569;1274;25525;-66
2022/05/31 22:45:05;;;;;;;15.30;12.00;;;;;;;14.03;69.11;98358.46;219641;1273;24470;-66
2022/05/31 22:50:09;;;;;;;19.10;12.50;;;;;;;14.03;69.33;98353.77;220049;1273;25425;-67
2022/05/31 22:55:18;;;;;;;16.60;12.20;;;;;;;14.04;69.48;98360.36;219983;1273;25380;-67
2022/05/31 23:00:39;;;;;;;23.10;13.00;;;;;;;14.04;69.44;98357.35;219927;1274;25474;-67
2022/05/31 23:05:48;;;;;;;16.80;12.50;;;;;;;14.04;69.47;98359.66;220252;1274;22536;-67
2022/05/31 23:10:55;;;;;;;16.10;12.50;;;;;;;14.04;69.32;98362.03;220062;1274;22713;-66
2022/05/31 23:16:01;;;;;;;18.30;13.60;;;;;;;14.06;69.53;98365.02;220101;1274;22608;-66
2022/05/31 23:21:17;;;;;;;17.50;12.00;;;;;;;14.08;69.84;98358.64;219498;1274;23822;-67
2022/05/31 23:26:28;;;;;;;17.50;11.40;;;;;;;14.11;69.68;98355.72;219952;1273;22785;-67
2022/05/31 23:32:03;;;;;;;15.50;10.50;;;;;;;14.14;69.63;98352.60;220240;1273;22558;-67
2022/05/31 23:37:07;;;;;;;12.20;9.50;;;;;;;14.18;69.49;98359.63;219846;1274;22515;-67
2022/05/31 23:42:23;;;;;;;12.30;9.10;;;;;;;14.23;69.35;98364.33;219917;1274;26116;-68
2022/05/31 23:47:25;;;;;;;11.80;8.80;;;;;;;14.25;69.17;98375.67;220293;1273;24350;-67
2022/05/31 23:52:28;;;;;;;11.30;7.60;;;;;;;14.27;68.97;98384.08;219616;1273;25384;-67
2022/05/31 23:57:30;;;;;;;8.90;7.10;;;;;;;14.31;68.58;98389.59;219973;1274;22539;-66
